createdAt,value
2022-11-22T06:07:13.955Z,132.43
2022-11-22T06:09:41.302Z,132.43
2022-11-22T06:12:08.906Z,142.30
2022-11-22T06:14:41.524Z,130.13
2022-11-22T06:17:10.453Z,143.33
2022-11-22T06:19:37.809Z,138.07
2022-11-22T06:22:06.198Z,133.73
2022-11-22T06:24:33.577Z,145.53
2022-11-22T06:27:01.282Z,143.33
2022-11-22T06:29:30.046Z,144.90
2022-11-22T06:32:03.138Z,133.43
2022-11-22T06:34:31.175Z,146.77
2022-11-22T06:36:58.538Z,138.77
2022-11-22T06:39:25.873Z,141.30
2022-11-22T06:41:53.125Z,138.73
2022-11-22T06:44:20.483Z,140.23
2022-11-22T06:46:50.631Z,153.37
2022-11-22T06:49:17.923Z,145.20
2022-11-22T06:51:45.218Z,151.53
2022-11-22T06:54:12.589Z,148.83
2022-11-22T06:56:40.847Z,162.77
2022-11-22T06:59:08.798Z,149.83
2022-11-22T07:01:37.609Z,159.03
2022-11-22T07:04:05.392Z,159.10
2022-11-22T07:06:34.012Z,147.30
2022-11-22T07:09:02.632Z,156.27
2022-11-22T07:11:31.345Z,170.03
2022-11-22T07:14:05.280Z,154.53
2022-11-22T07:16:34.797Z,155.43
2022-11-22T07:19:02.076Z,146.03
2022-11-22T07:21:29.434Z,157.07
2022-11-22T07:23:56.857Z,151.63
2022-11-22T07:26:24.974Z,161.53
2022-11-22T07:28:52.315Z,161.93
2022-11-22T07:31:19.823Z,158.37
2022-11-22T07:33:47.578Z,175.73
2022-11-22T07:36:16.386Z,164.77
2022-11-22T07:38:43.908Z,158.40
2022-11-22T07:41:11.323Z,161.03
2022-11-22T07:43:38.835Z,170.77
2022-11-22T07:46:08.525Z,159.20
2022-11-22T07:48:36.029Z,174.97
2022-11-22T07:51:08.830Z,157.97
2022-11-22T07:53:36.438Z,163.60
2022-11-22T07:56:07.207Z,165.57
2022-11-22T07:58:35.045Z,175.10
2022-11-22T08:01:09.007Z,167.80
2022-11-22T08:03:37.077Z,175.23
2022-11-22T08:06:06.244Z,164.83
2022-11-22T08:08:33.693Z,165.13
2022-11-22T08:11:01.241Z,176.93
2022-11-22T08:13:28.624Z,176.80
2022-11-22T08:15:59.632Z,171.00
2022-11-22T08:18:29.530Z,179.63
2022-11-22T08:21:04.446Z,178.67
2022-11-22T08:23:31.967Z,182.33
2022-11-22T08:25:59.883Z,178.60
2022-11-22T08:28:27.227Z,180.17
2022-11-22T08:31:00.179Z,178.10
2022-11-22T08:33:27.929Z,186.73
2022-11-22T08:35:55.305Z,176.33
2022-11-22T08:38:22.587Z,170.77
2022-11-22T08:40:50.942Z,181.23
2022-11-22T08:43:18.319Z,175.83
2022-11-22T08:45:45.568Z,181.43
2022-11-22T08:48:16.414Z,172.87
2022-11-22T08:50:59.866Z,176.53
2022-11-22T08:53:27.841Z,172.90
2022-11-22T08:55:55.540Z,163.77
2022-11-22T08:58:23.717Z,170.33
2022-11-22T09:00:51.095Z,171.90
2022-11-22T09:03:18.411Z,161.47
2022-11-22T09:08:36.510Z,173.43
2022-11-22T09:11:07.707Z,175.07
2022-11-22T09:13:35.273Z,170.17
2022-11-22T09:16:06.744Z,169.73
2022-11-22T09:18:34.192Z,164.93
2022-11-22T09:21:05.939Z,173.37
2022-11-22T09:23:34.201Z,163.97
2022-11-22T09:26:03.040Z,171.93
2022-11-22T09:28:30.554Z,161.93
2022-11-22T09:31:02.967Z,164.27
2022-11-22T09:33:30.928Z,151.47
2022-11-22T09:36:02.144Z,155.77
2022-11-22T09:38:30.207Z,151.57
2022-11-22T09:40:57.904Z,153.37
2022-11-22T09:43:45.667Z,156.70
2022-11-22T09:46:13.986Z,167.63
2022-11-22T09:48:45.494Z,164.53
2022-11-22T09:51:20.717Z,161.77
2022-11-22T09:53:56.099Z,153.60
2022-11-22T09:56:25.141Z,160.10
2022-11-22T09:59:01.157Z,156.40
2022-11-22T10:01:32.598Z,151.63
2022-11-22T10:04:12.039Z,156.13
2022-11-22T10:06:51.684Z,156.40
2022-11-22T10:09:34.332Z,152.57
2022-11-22T10:12:12.243Z,154.67
2022-11-22T10:14:48.603Z,146.50
2022-11-22T10:17:22.782Z,151.27
2022-11-22T10:20:03.072Z,157.73
2022-11-22T10:22:30.748Z,158.60
2022-11-22T10:25:00.717Z,158.67
2022-11-22T10:27:31.961Z,146.70
2022-11-22T10:30:07.431Z,146.10
2022-11-22T10:32:38.032Z,157.47
2022-11-22T10:35:16.907Z,142.90
2022-11-22T10:37:47.286Z,139.60
2022-11-22T10:40:38.565Z,143.70
2022-11-22T10:43:11.925Z,153.90
2022-11-22T10:45:42.225Z,137.93
2022-11-22T10:48:29.336Z,132.17
2022-11-22T10:51:02.898Z,142.47
2022-11-22T10:53:30.294Z,120.53
2022-11-22T10:56:14.034Z,133.23
2022-11-22T10:58:44.142Z,135.33
2022-11-22T11:01:18.427Z,127.43
2022-11-22T11:03:48.319Z,133.23
2022-11-22T11:06:29.526Z,131.37
2022-11-22T11:11:59.199Z,129.83
2022-11-22T11:14:38.676Z,113.13
2022-11-22T11:17:06.605Z,117.63
2022-11-22T11:19:39.481Z,122.57
2022-11-22T11:22:15.941Z,123.20
2022-11-22T11:24:43.438Z,121.00
2022-11-22T11:27:11.868Z,119.73
2022-11-22T11:29:39.440Z,118.73
2022-11-22T11:32:10.985Z,121.33
2022-11-22T11:34:40.172Z,114.53
2022-11-22T11:37:07.525Z,107.40
2022-11-22T11:39:36.275Z,105.50
2022-11-22T11:42:22.207Z,111.57
2022-11-22T11:44:49.616Z,99.87
2022-11-22T11:47:21.146Z,107.00
2022-11-22T11:49:52.204Z,107.77
2022-11-22T11:52:29.907Z,105.33
2022-11-22T11:54:57.871Z,110.03
2022-11-22T11:57:32.193Z,90.50
2022-11-22T12:00:03.332Z,91.50
2022-11-22T12:02:41.901Z,96.10
2022-11-22T12:05:29.686Z,87.37
2022-11-22T12:07:57.150Z,91.53
2022-11-22T12:10:27.537Z,89.10
2022-11-22T12:13:04.955Z,85.40
2022-11-22T12:15:51.760Z,80.03
2022-11-22T12:18:19.002Z,83.77
2022-11-22T12:21:02.747Z,78.87
2022-11-22T12:23:51.062Z,90.10
2022-11-22T12:26:19.293Z,84.67
2022-11-22T12:28:47.587Z,83.10
2022-11-22T12:31:29.430Z,86.07
2022-11-22T12:33:58.370Z,80.60
2022-11-22T12:36:39.192Z,89.87
2022-11-22T12:39:06.967Z,82.03
2022-11-22T12:41:34.668Z,89.07
2022-11-22T12:44:03.244Z,84.00
2022-11-22T12:46:39.636Z,80.80
2022-11-22T12:49:11.976Z,85.83
2022-11-22T12:51:44.491Z,81.10
2022-11-22T12:54:15.091Z,82.93
2022-11-22T12:56:49.526Z,75.77
2022-11-22T12:59:16.982Z,81.10
2022-11-22T13:01:48.640Z,73.60
2022-11-22T13:04:16.433Z,70.30
2022-11-22T13:06:53.120Z,71.50
2022-11-22T13:09:31.333Z,63.83
2022-11-22T13:12:00.775Z,66.37
2022-11-22T13:14:33.287Z,63.27
2022-11-22T13:17:06.417Z,62.57
2022-11-22T13:19:39.255Z,61.00
2022-11-22T13:22:11.218Z,58.50
2022-11-22T13:24:56.128Z,56.57
2022-11-22T13:27:26.860Z,58.00
2022-11-22T13:29:56.609Z,55.43
2022-11-22T13:32:25.220Z,52.00
2022-11-22T13:35:04.761Z,51.53
2022-11-22T13:37:34.678Z,60.27
2022-11-22T13:40:18.662Z,54.50
2022-11-22T13:42:46.023Z,59.20
2022-11-22T13:45:23.232Z,57.43
2022-11-22T13:47:50.868Z,58.83
2022-11-22T13:50:36.652Z,60.03
2022-11-22T13:53:19.284Z,63.47
2022-11-22T13:55:47.079Z,57.17
2022-11-22T13:58:34.522Z,57.63
2022-11-22T14:01:02.236Z,56.77
2022-11-22T14:03:43.095Z,63.80
2022-11-22T14:06:23.101Z,61.37
2022-11-22T14:08:50.575Z,54.90
2022-11-22T14:11:20.722Z,61.43
2022-11-22T14:13:54.346Z,61.50
2022-11-22T14:16:34.483Z,60.53
2022-11-22T14:19:06.822Z,55.53
2022-11-22T14:21:40.515Z,58.43
2022-11-22T14:24:11.230Z,56.67
2022-11-22T14:26:39.241Z,58.17
2022-11-22T14:29:21.648Z,62.23
2022-11-22T14:31:58.466Z,58.87
2022-11-22T14:34:30.576Z,61.53
2022-11-22T14:37:13.269Z,61.43
2022-11-22T14:40:07.303Z,64.57
2022-11-22T14:42:47.181Z,63.63
2022-11-22T14:45:23.156Z,65.10
2022-11-22T14:47:51.185Z,63.07
2022-11-22T14:50:18.676Z,61.87
2022-11-22T14:52:47.691Z,59.33
2022-11-22T14:55:17.489Z,59.63
2022-11-22T14:57:45.551Z,65.53
2022-11-22T15:00:19.380Z,58.10
2022-11-22T15:03:08.263Z,60.00
2022-11-22T15:09:18.203Z,63.27
2022-11-22T15:09:22.472Z,62.67
2022-11-22T15:11:58.054Z,67.87
2022-11-22T15:14:26.837Z,64.33
2022-11-22T15:59:46.877Z,72.03
2022-11-22T16:02:37.192Z,68.97
2022-11-22T16:06:05.474Z,81.33
2022-11-22T16:08:00.155Z,74.07
2022-11-22T16:10:38.806Z,82.93
2022-11-22T16:13:21.427Z,76.00
2022-11-22T16:16:07.224Z,76.50
2022-11-22T16:18:37.666Z,79.13
2022-11-22T16:21:08.173Z,78.23
2022-11-22T16:23:37.597Z,77.37
2022-11-22T16:26:27.615Z,79.77
2022-11-22T16:28:55.670Z,82.50
2022-11-22T16:31:24.489Z,80.97
2022-11-22T16:33:52.599Z,79.80
2022-11-22T16:36:21.419Z,79.17
2022-11-22T16:38:51.117Z,81.00
2022-11-22T16:41:23.286Z,77.13
2022-11-22T16:43:52.733Z,78.10
2022-11-22T16:46:20.215Z,71.93
2022-11-22T16:48:47.871Z,78.73
2022-11-22T16:51:16.352Z,77.63
2022-11-22T16:53:43.640Z,71.03
2022-11-22T16:56:21.251Z,72.90
2022-11-22T16:58:50.337Z,76.17
2022-11-22T17:01:19.124Z,76.43
2022-11-22T17:03:47.636Z,77.90
2022-11-22T17:06:16.448Z,81.53
2022-11-22T17:08:43.838Z,81.07
2022-11-22T17:11:11.652Z,80.97
2022-11-22T17:13:38.957Z,86.47
2022-11-22T17:16:06.493Z,76.30
2022-11-22T17:18:33.732Z,82.40
2022-11-22T17:21:01.000Z,82.90
2022-11-22T17:23:36.649Z,79.03
2022-11-22T17:26:05.121Z,75.67
2022-11-22T17:28:32.884Z,83.33
2022-11-22T17:31:03.354Z,83.70
2022-11-22T17:33:30.647Z,83.30
2022-11-22T17:35:58.245Z,87.13
2022-11-22T17:38:25.671Z,84.53
2022-11-22T17:41:06.952Z,89.87
2022-11-22T17:43:37.397Z,89.93
2022-11-22T17:46:05.025Z,91.40
2022-11-22T17:48:32.454Z,81.27
2022-11-22T17:50:59.823Z,83.40
2022-11-22T17:53:27.084Z,92.57
2022-11-22T17:56:10.041Z,83.00
2022-11-22T17:58:38.684Z,88.17
2022-11-22T18:01:09.098Z,88.80
2022-11-22T18:03:39.946Z,86.80
2022-11-22T18:06:09.913Z,90.40
2022-11-22T18:08:37.305Z,88.20
2022-11-22T18:11:05.887Z,93.80
2022-11-22T18:13:35.869Z,88.73
2022-11-22T18:16:04.100Z,90.03
2022-11-22T18:18:55.606Z,90.57
2022-11-22T18:21:21.078Z,87.33
2022-11-22T18:23:52.659Z,87.70
2022-11-22T18:26:38.908Z,87.33
2022-11-22T18:31:59.576Z,78.67
2022-11-22T18:34:30.576Z,86.88
2022-11-22T18:37:02.963Z,87.77
2022-11-22T18:39:33.076Z,80.43
2022-11-22T18:42:00.657Z,89.43
2022-11-22T18:44:27.971Z,85.03
2022-11-22T18:46:55.324Z,89.30
2022-11-22T18:49:22.837Z,89.20
2022-11-22T18:51:50.220Z,88.87
2022-11-22T18:54:18.646Z,90.13
2022-11-22T18:56:45.949Z,88.37
2022-11-22T18:59:13.581Z,87.43
2022-11-22T19:01:41.414Z,88.97
2022-11-22T19:04:10.508Z,87.27
2022-11-22T19:06:42.298Z,89.23
2022-11-22T19:09:10.254Z,86.97
2022-11-22T19:11:37.623Z,92.07
2022-11-22T19:14:05.109Z,86.53
2022-11-22T19:16:32.544Z,95.73
2022-11-22T19:19:00.100Z,95.30
2022-11-22T19:21:29.227Z,89.80
2022-11-22T19:23:57.091Z,85.20
2022-11-22T19:26:25.897Z,83.03
2022-11-22T19:28:57.742Z,90.97
2022-11-22T19:31:28.037Z,90.63
2022-11-22T19:33:55.630Z,90.20
2022-11-22T19:36:32.278Z,87.40
2022-11-22T19:39:02.637Z,87.97
2022-11-22T19:41:31.039Z,86.53
2022-11-22T19:43:58.650Z,92.53
2022-11-22T19:46:27.774Z,95.03
2022-11-22T19:48:56.574Z,85.13
2022-11-22T19:51:24.112Z,86.70
2022-11-22T19:53:55.170Z,92.77
2022-11-22T19:56:22.796Z,85.87
2022-11-22T19:58:57.659Z,88.13
2022-11-22T20:01:26.025Z,91.90
2022-11-22T20:03:54.627Z,87.47
2022-11-22T20:06:22.039Z,87.77
2022-11-22T20:08:49.601Z,87.83
2022-11-22T20:11:18.755Z,90.63
2022-11-22T20:13:49.226Z,87.80
2022-11-22T20:16:21.151Z,90.17
2022-11-22T20:18:49.152Z,84.97
2022-11-22T20:21:21.884Z,84.87
2022-11-22T20:23:50.330Z,84.83
2022-11-22T20:26:18.150Z,86.80
2022-11-22T20:28:46.124Z,95.40
2022-11-22T20:31:14.877Z,81.90
2022-11-22T20:33:44.309Z,82.30
2022-11-22T20:36:13.100Z,81.77
2022-11-22T20:38:41.074Z,84.33
2022-11-22T20:41:08.821Z,97.03
2022-11-22T20:43:36.808Z,90.40
2022-11-22T20:46:06.170Z,97.73
2022-11-22T20:48:33.845Z,89.50
2022-11-22T20:51:03.299Z,91.93
2022-11-22T20:53:30.750Z,87.50
2022-11-22T20:55:58.634Z,98.17
2022-11-22T20:58:26.373Z,102.10
2022-11-22T21:00:54.045Z,97.47
2022-11-22T21:03:21.338Z,94.93
2022-11-22T21:05:53.015Z,104.37
2022-11-22T21:08:20.916Z,95.77
2022-11-22T21:10:48.218Z,98.57
2022-11-22T21:13:15.620Z,95.37
2022-11-22T21:15:42.982Z,92.23
2022-11-22T21:18:25.200Z,91.83
2022-11-22T21:20:53.588Z,86.67
2022-11-22T21:23:20.871Z,89.70
2022-11-22T21:25:50.596Z,92.60
2022-11-22T21:28:17.973Z,86.83
2022-11-22T21:30:45.367Z,95.30
2022-11-22T21:33:12.830Z,94.60
2022-11-22T21:35:42.759Z,92.03
2022-11-22T21:38:13.779Z,87.03
2022-11-22T21:40:41.376Z,90.30
2022-11-22T21:43:08.836Z,92.50
2022-11-22T21:45:36.684Z,90.87
2022-11-22T21:48:04.688Z,91.03
2022-11-22T21:50:32.020Z,93.73
2022-11-22T21:52:59.781Z,91.73
2022-11-22T21:55:27.159Z,86.77
2022-11-22T21:57:54.414Z,93.90
2022-11-22T22:00:21.767Z,96.67
2022-11-22T22:02:49.027Z,89.53
2022-11-22T22:05:17.826Z,95.30
2022-11-22T22:07:52.523Z,93.77
2022-11-22T22:10:20.785Z,92.60
2022-11-22T22:12:51.191Z,92.03
2022-11-22T22:15:18.712Z,87.77
2022-11-22T22:17:46.153Z,82.30
2022-11-22T22:20:13.780Z,83.73
2022-11-22T22:22:43.541Z,87.73
2022-11-22T22:25:11.058Z,91.27
2022-11-22T22:27:38.343Z,89.27
2022-11-22T22:30:06.323Z,91.13
2022-11-22T22:32:35.087Z,91.30
2022-11-22T22:35:05.269Z,89.67
2022-11-22T22:37:35.096Z,83.97
2022-11-22T22:40:02.941Z,89.13
2022-11-22T22:42:32.311Z,92.60
2022-11-22T22:45:02.436Z,92.77
2022-11-22T22:47:33.551Z,93.83
2022-11-22T22:50:00.838Z,90.43
2022-11-22T22:52:28.186Z,97.40
2022-11-22T22:54:55.491Z,92.30
2022-11-22T22:57:22.715Z,91.53
2022-11-22T22:59:50.305Z,94.73
2022-11-22T23:02:17.581Z,97.10
2022-11-22T23:04:44.935Z,99.73
2022-11-22T23:07:12.205Z,94.93
2022-11-22T23:09:39.635Z,94.13
2022-11-22T23:12:13.214Z,99.87
2022-11-22T23:14:40.864Z,94.77
2022-11-22T23:17:09.561Z,95.30
2022-11-22T23:19:37.069Z,97.80
2022-11-22T23:22:04.434Z,92.80
2022-11-22T23:24:32.443Z,96.30
2022-11-22T23:26:59.812Z,102.70
2022-11-22T23:29:27.692Z,91.17
2022-11-22T23:31:55.056Z,94.90
2022-11-22T23:34:22.379Z,101.67
2022-11-22T23:36:49.708Z,92.97
2022-11-22T23:39:19.334Z,98.13
2022-11-22T23:41:46.800Z,100.77
2022-11-22T23:44:14.091Z,99.27
2022-11-22T23:46:41.509Z,95.30
2022-11-22T23:49:08.969Z,100.90
2022-11-22T23:51:37.895Z,91.33
2022-11-22T23:54:07.081Z,99.30
2022-11-22T23:56:36.263Z,98.07
2022-11-22T23:59:14.068Z,88.57
